Jonquiere, Canada
Current Conditions -  °F | °C
As of 1:00 PM on Wednesday 28 Jan 2015 (Local Time) from CYBG Reporting Station
Few Clouds Few Clouds  
Wind Chill: -10°   Ceiling: Unl
Heat Index:   Visibility: 25mi
Dew Point:   Wind: 10mph
Humidity: 78%   Direction: 270°W
Pressure: 30.1"   Gusts: NA
Location:  48.41°N, 71.25°W
Report Text: CYBG 281800Z 27009KT 25SM FEW240 M15/M18 A3010 RMK CI0 SLP211
Loading
Personal Weather Stations






























Interactive Weather Map New forecast layout! Learn more

10-Day Weather Forecast

Advertisements
Track Severe Weather on mobile